Time;durP1;ratioP1;P1;durP2;ratioP2;P2;SDS_P1;SDS_P2;PMS_P1;PMS_P2;Temp;Humidity;BMP_temperature;BMP_pressure;BME280_temperature;BME280_humidity;BME280_pressure;Samples;Min_cycle;Max_cycle;Signal;HPM_P1;HPM_P2
2021/12/09 00:04:08;;;;;;;41.33;20.70;;;;;;;2.36;64.63;99090.66;7632033;32;39459;-76
2021/12/09 00:08:26;;;;;;;49.33;22.02;;;;;;;2.96;62.74;99076.84;7632328;32;39915;-77
2021/12/09 00:12:42;;;;;;;38.67;20.42;;;;;;;2.97;62.62;99054.25;7631948;32;38946;-77
2021/12/09 00:17:04;;;;;;;46.22;21.77;;;;;;;3.15;61.86;99017.41;7631916;32;37195;-77
2021/12/09 00:21:20;;;;;;;40.67;20.88;;;;;;;3.01;61.97;99006.12;7631970;32;39120;-77
2021/12/09 00:25:37;;;;;;;42.22;21.87;;;;;;;3.07;61.83;99007.03;7631564;32;40682;-77
2021/12/09 00:29:53;;;;;;;44.35;19.87;;;;;;;2.97;62.59;99000.41;7631775;32;37794;-77
2021/12/09 00:34:09;;;;;;;47.40;21.90;;;;;;;2.92;62.75;99013.78;7631682;32;37135;-76
2021/12/09 00:38:40;;;;;;;46.20;21.25;;;;;;;2.70;63.75;99021.69;7631565;32;40100;-77
2021/12/09 00:42:57;;;;;;;47.85;22.55;;;;;;;2.97;62.91;99016.56;7631465;32;40981;-76
2021/12/09 00:47:14;;;;;;;43.40;21.55;;;;;;;2.95;62.58;99029.47;7631255;32;38024;-76
2021/12/09 00:51:30;;;;;;;44.13;20.83;;;;;;;3.07;62.45;99039.34;7630081;32;37411;-77
2021/12/09 00:55:46;;;;;;;46.42;22.58;;;;;;;2.68;63.97;99026.50;7631339;32;39023;-77
2021/12/09 01:00:12;;;;;;;47.67;21.20;;;;;;;2.94;63.08;99016.22;7631056;32;40913;-76
2021/12/09 01:04:29;;;;;;;40.95;21.10;;;;;;;2.94;63.13;99000.88;7630969;32;37618;-77
2021/12/09 01:08:45;;;;;;;49.08;23.08;;;;;;;2.71;63.98;98996.44;7630942;32;37870;-77
2021/12/09 01:13:01;;;;;;;43.22;20.48;;;;;;;2.69;64.17;98986.94;7630885;32;39734;-76
2021/12/09 01:17:17;;;;;;;36.28;20.80;;;;;;;3.17;62.18;98978.44;7630709;32;39165;-77
2021/12/09 01:21:34;;;;;;;44.03;22.48;;;;;;;2.81;63.65;98971.56;7630569;32;37898;-76
2021/12/09 01:25:57;;;;;;;42.97;20.55;;;;;;;2.33;65.38;98988.91;7630290;32;37881;-77
2021/12/09 01:30:17;;;;;;;44.08;20.85;;;;;;;2.77;63.88;98979.31;7630389;32;39523;-77
2021/12/09 01:34:36;;;;;;;44.03;21.10;;;;;;;2.67;64.11;98967.53;7629147;32;40871;-76
2021/12/09 01:38:52;;;;;;;46.72;20.75;;;;;;;2.81;63.86;98993.09;7629052;32;38468;-76
2021/12/09 01:43:08;;;;;;;42.38;20.73;;;;;;;2.92;63.71;98986.84;7630140;32;37840;-77
2021/12/09 01:47:24;;;;;;;49.03;20.25;;;;;;;2.85;63.82;98982.69;7628827;32;40028;-76
2021/12/09 01:51:45;;;;;;;47.13;21.27;;;;;;;2.79;64.04;98969.12;7629840;32;40006;-76
2021/12/09 01:56:04;;;;;;;42.85;21.60;;;;;;;2.75;63.92;98969.84;7629951;32;37807;-77
2021/12/09 02:00:24;;;;;;;49.53;22.08;;;;;;;2.98;63.24;98963.53;7629848;32;36912;-77
2021/12/09 02:04:41;;;;;;;41.92;21.70;;;;;;;2.66;64.83;98955.97;7633158;32;39493;-77
2021/12/09 02:08:57;;;;;;;48.03;22.08;;;;;;;2.69;64.34;98947.41;7633487;32;40730;-77
2021/12/09 02:13:13;;;;;;;44.42;20.73;;;;;;;3.04;63.13;98932.94;7633162;32;38676;-77
2021/12/09 02:17:31;;;;;;;45.63;21.62;;;;;;;2.77;63.94;98920.06;7633355;32;37699;-77
2021/12/09 02:21:47;;;;;;;41.88;20.52;;;;;;;2.63;64.48;98941.09;7633479;32;39307;-76
2021/12/09 02:26:04;;;;;;;41.03;19.75;;;;;;;2.41;65.18;98915.91;7632951;32;40119;-77
2021/12/09 02:30:20;;;;;;;44.45;21.92;;;;;;;2.61;64.65;98942.41;7633063;32;38583;-77
2021/12/09 02:34:37;;;;;;;40.33;20.25;;;;;;;2.69;64.26;98942.03;7633223;32;37170;-77
2021/12/09 02:38:53;;;;;;;41.00;20.62;;;;;;;2.59;64.60;98906.84;7633059;32;39356;-76
2021/12/09 02:43:10;;;;;;;38.55;19.37;;;;;;;2.48;64.94;98913.09;7632926;32;40950;-76
2021/12/09 02:47:26;;;;;;;43.70;20.05;;;;;;;2.84;63.43;98919.94;7632876;32;37889;-76
2021/12/09 02:51:43;;;;;;;44.10;21.83;;;;;;;2.53;64.09;98903.22;7633057;32;37818;-76
2021/12/09 02:55:59;;;;;;;39.10;20.55;;;;;;;2.65;64.30;98888.91;7632782;32;39249;-77
2021/12/09 03:00:15;;;;;;;46.63;20.73;;;;;;;2.42;65.11;98869.12;7632707;32;39977;-76
2021/12/09 03:04:39;;;;;;;48.97;20.08;;;;;;;2.73;64.03;98896.59;7632786;32;38681;-76
2021/12/09 03:08:56;;;;;;;39.20;18.60;;;;;;;2.43;65.14;98876.97;7632654;32;37258;-77
2021/12/09 03:13:12;;;;;;;44.97;22.27;;;;;;;2.32;65.66;98906.59;7630568;32;38723;-76
2021/12/09 03:17:29;;;;;;;42.40;22.58;;;;;;;2.22;66.07;98859.59;7632586;32;39700;-76
2021/12/09 03:21:47;;;;;;;39.08;19.75;;;;;;;2.18;66.53;98838.84;7632423;32;37796;-77
2021/12/09 03:26:03;;;;;;;45.03;21.62;;;;;;;2.50;65.08;98859.84;7631146;32;37910;-77
2021/12/09 03:30:20;;;;;;;45.97;21.83;;;;;;;2.25;66.45;98837.63;7632044;32;40017;-77
2021/12/09 03:34:38;;;;;;;42.65;20.65;;;;;;;2.21;66.46;98855.31;7632344;32;39680;-77
2021/12/09 03:38:54;;;;;;;45.78;20.85;;;;;;;2.56;64.97;98851.63;7632148;32;38599;-76
2021/12/09 03:43:10;;;;;;;41.70;19.85;;;;;;;2.40;65.49;98868.56;7632352;32;37339;-76
2021/12/09 03:47:29;;;;;;;44.42;20.42;;;;;;;2.18;65.96;98879.97;7632227;32;39190;-76
2021/12/09 03:51:46;;;;;;;42.65;21.23;;;;;;;2.27;65.62;98860.78;7632225;32;40003;-76
2021/12/09 03:56:02;;;;;;;43.30;19.50;;;;;;;2.10;66.57;98861.53;7632242;32;37662;-76
2021/12/09 04:00:19;;;;;;;39.00;20.15;;;;;;;2.35;65.85;98863.09;7632118;32;37857;-77
2021/12/09 04:04:35;;;;;;;36.80;18.65;;;;;;;2.68;64.82;98861.53;7631982;32;39324;-77
2021/12/09 04:08:51;;;;;;;36.67;17.58;;;;;;;3.01;63.11;98877.69;7632217;32;40825;-76
2021/12/09 04:13:07;;;;;;;33.35;18.40;;;;;;;2.53;64.36;98880.87;7631955;32;37956;-76
2021/12/09 04:17:23;;;;;;;36.13;17.83;;;;;;;2.99;63.29;98873.63;7631898;32;37889;-76
2021/12/09 04:21:41;;;;;;;34.35;17.95;;;;;;;2.73;64.25;98853.53;7630560;32;40125;-76
2021/12/09 04:25:57;;;;;;;33.08;16.33;;;;;;;2.90;63.48;98853.53;7631275;32;39934;-76
2021/12/09 04:30:14;;;;;;;32.83;15.48;;;;;;;3.00;63.07;98857.22;7630515;32;38935;-75
2021/12/09 04:34:31;;;;;;;32.97;17.20;;;;;;;2.75;63.64;98873.75;7630517;32;37946;-76
2021/12/09 04:38:49;;;;;;;34.05;16.62;;;;;;;2.97;63.06;98864.97;7631674;32;39637;-76
2021/12/09 04:43:05;;;;;;;31.37;15.35;;;;;;;3.15;62.29;98875.47;7631448;32;39836;-76
2021/12/09 04:47:21;;;;;;;30.42;14.63;;;;;;;3.13;62.40;98864.13;7617916;32;37836;-76
2021/12/09 04:51:37;;;;;;;29.50;15.48;;;;;;;3.25;61.95;98866.75;7630241;32;37954;-76
2021/12/09 04:55:54;;;;;;;30.05;15.07;;;;;;;3.26;61.59;98863.00;7631283;32;39268;-77
2021/12/09 05:00:17;;;;;;;22.27;12.27;;;;;;;3.00;62.57;98884.16;7631162;32;38515;-76
2021/12/09 05:04:33;;;;;;;24.52;13.00;;;;;;;2.86;62.76;98873.94;7630952;32;38668;-76
2021/12/09 05:08:51;;;;;;;19.35;10.98;;;;;;;2.94;62.19;98887.78;7630957;32;38221;-76
2021/12/09 05:13:07;;;;;;;28.33;12.05;;;;;;;3.22;61.66;98896.06;7630860;32;38931;-76
2021/12/09 05:17:23;;;;;;;23.20;11.77;;;;;;;3.26;61.29;98883.72;7629495;32;40758;-76
2021/12/09 05:21:40;;;;;;;23.12;12.07;;;;;;;3.35;61.11;98877.69;7630585;32;38776;-78
2021/12/09 05:25:56;;;;;;;22.62;10.95;;;;;;;3.24;61.54;98877.75;7629105;32;36963;-76
2021/12/09 05:30:13;;;;;;;21.40;11.48;;;;;;;3.49;60.41;98867.38;7630485;32;39093;-76
2021/12/09 05:34:30;;;;;;;22.42;10.82;;;;;;;2.81;62.75;98855.81;7630372;32;40648;-76
2021/12/09 05:38:46;;;;;;;21.50;11.60;;;;;;;2.89;62.43;98852.72;7632762;32;37704;-76
2021/12/09 05:43:03;;;;;;;27.45;12.00;;;;;;;3.06;61.86;98858.09;7633801;32;37122;-76
2021/12/09 05:47:19;;;;;;;21.20;12.20;;;;;;;2.66;63.42;98859.06;7634013;32;39243;-77
2021/12/09 05:51:36;;;;;;;24.05;12.98;;;;;;;2.94;62.72;98844.72;7632405;32;40051;-76
2021/12/09 05:55:52;;;;;;;23.92;13.30;;;;;;;2.82;62.96;98854.75;7633516;32;37946;-77
2021/12/09 06:00:09;;;;;;;23.40;12.13;;;;;;;2.89;62.55;98858.09;7633742;32;37181;-76
2021/12/09 06:04:25;;;;;;;23.60;12.93;;;;;;;3.15;61.95;98872.78;7633458;32;39344;-76
2021/12/09 06:08:41;;;;;;;22.08;12.07;;;;;;;3.08;62.02;98844.41;7633514;32;40887;-76
2021/12/09 06:12:58;;;;;;;24.30;13.25;;;;;;;2.41;64.52;98825.25;7633374;32;37137;-77
2021/12/09 06:17:14;;;;;;;22.35;11.60;;;;;;;2.62;63.10;98823.75;7633417;32;37854;-74
2021/12/09 06:21:30;;;;;;;20.75;11.18;;;;;;;2.98;67.89;98835.09;7633373;32;40052;-76
2021/12/09 06:25:46;;;;;;;22.75;12.40;;;;;;;3.57;65.99;98823.81;7633074;32;40655;-78
2021/12/09 06:30:03;;;;;;;23.15;12.40;;;;;;;3.32;63.05;98810.81;7633056;32;37614;-78
2021/12/09 06:34:19;;;;;;;22.58;12.25;;;;;;;3.43;60.69;98825.22;7633226;32;37536;-77
2021/12/09 06:38:35;;;;;;;23.62;12.40;;;;;;;3.30;62.54;98839.88;7633103;32;39319;-80
2021/12/09 06:42:53;;;;;;;22.92;11.32;;;;;;;3.42;61.43;98828.19;7633063;32;39796;-78
2021/12/09 06:47:09;;;;;;;23.73;12.00;;;;;;;3.90;59.54;98829.34;7632911;32;37452;-77
2021/12/09 06:51:26;;;;;;;26.80;13.43;;;;;;;3.15;61.41;98812.72;7633042;32;37333;-77
2021/12/09 06:55:43;;;;;;;21.35;12.27;;;;;;;3.50;59.98;98815.12;7631730;32;39323;-77
2021/12/09 06:59:59;;;;;;;25.95;12.82;;;;;;;3.06;60.61;98814.22;7631639;32;40823;-78
2021/12/09 07:04:16;;;;;;;27.40;13.02;;;;;;;3.26;60.09;98813.66;7631518;32;37899;-77
2021/12/09 07:08:36;;;;;;;25.92;13.85;;;;;;;3.09;60.89;98802.94;7632762;32;37488;-77
2021/12/09 07:12:53;;;;;;;24.90;13.77;;;;;;;2.99;60.75;98828.66;7632701;32;39108;-77
2021/12/09 07:17:10;;;;;;;23.25;13.30;;;;;;;2.88;60.62;98812.56;7632583;32;39958;-77
2021/12/09 07:21:27;;;;;;;22.35;12.85;;;;;;;3.05;60.35;98831.41;7632561;32;37623;-77
2021/12/09 07:25:43;;;;;;;23.92;13.48;;;;;;;2.96;59.98;98831.81;7632328;32;37693;-77
2021/12/09 07:29:59;;;;;;;23.58;13.38;;;;;;;3.07;59.73;98811.28;7632592;32;39220;-77
2021/12/09 07:34:21;;;;;;;23.65;13.75;;;;;;;3.17;59.10;98805.19;7632539;32;39734;-77
2021/12/09 07:38:37;;;;;;;25.27;13.65;;;;;;;2.73;60.91;98800.50;7632359;32;38630;-77
2021/12/09 07:42:54;;;;;;;25.98;13.38;;;;;;;2.86;60.68;98788.59;7632431;32;37218;-75
2021/12/09 07:47:10;;;;;;;28.00;13.52;;;;;;;3.06;59.48;98798.06;7632280;32;39089;-79
2021/12/09 07:51:26;;;;;;;26.00;13.05;;;;;;;3.08;59.81;98801.31;7631712;32;39614;-75
2021/12/09 07:55:43;;;;;;;25.40;13.85;;;;;;;3.22;59.39;98818.75;7628083;32;37591;-78
2021/12/09 08:00:00;;;;;;;27.35;14.90;;;;;;;3.05;59.96;98807.19;7655030;32;37371;-77
2021/12/09 08:04:16;;;;;;;27.75;14.43;;;;;;;2.97;59.80;98795.78;7656404;32;40597;-78
2021/12/09 08:08:33;;;;;;;26.65;13.93;;;;;;;2.92;60.03;98798.38;7657421;32;39878;-78
2021/12/09 08:12:50;;;;;;;26.58;14.87;;;;;;;3.21;59.37;98787.50;7656730;32;37938;-77
2021/12/09 08:21:53;;;;;;;29.02;14.93;;;;;;;3.43;58.74;98759.75;7646959;32;39824;-76
2021/12/09 08:26:09;;;;;;;33.83;16.35;;;;;;;2.89;60.61;98769.25;7657726;32;40041;-76
2021/12/09 08:30:26;;;;;;;32.70;15.13;;;;;;;2.60;61.31;98758.59;7657926;32;37967;-77
2021/12/09 08:35:02;;;;;;;28.23;15.05;;;;;;;2.93;60.79;98750.72;7656807;32;37601;-77
2021/12/09 08:39:18;;;;;;;27.85;14.73;;;;;;;3.33;59.68;98763.97;7657815;32;39861;-78
2021/12/09 08:43:36;;;;;;;29.23;15.20;;;;;;;3.08;60.30;98771.69;7657801;32;40534;-77
2021/12/09 08:47:57;;;;;;;26.12;13.60;;;;;;;2.96;60.65;98759.13;7657592;32;37837;-77
2021/12/09 08:52:13;;;;;;;26.60;14.13;;;;;;;2.79;61.38;98736.78;7657652;32;37234;-77
2021/12/09 08:56:30;;;;;;;31.87;13.65;;;;;;;2.95;60.54;98745.91;7657558;32;39583;-77
2021/12/09 09:00:47;;;;;;;27.87;14.23;;;;;;;2.97;60.27;98735.72;7657421;32;39826;-77
2021/12/09 09:05:07;;;;;;;31.77;14.23;;;;;;;3.06;59.88;98754.97;7657186;32;37812;-77
2021/12/09 09:09:26;;;;;;;32.10;14.50;;;;;;;2.76;60.75;98761.50;7657363;32;37928;-76
2021/12/09 09:13:42;;;;;;;28.48;14.85;;;;;;;2.64;60.97;98753.53;7658270;32;39083;-77
2021/12/09 09:17:59;;;;;;;23.77;13.90;;;;;;;2.71;61.32;98747.97;7660290;32;39779;-77
2021/12/09 09:22:16;;;;;;;26.98;13.40;;;;;;;2.59;61.28;98746.19;7658898;32;38588;-77
2021/12/09 09:26:32;;;;;;;29.92;14.13;;;;;;;3.03;59.35;98737.41;7659899;32;37430;-77
2021/12/09 09:30:53;;;;;;;30.23;13.85;;;;;;;2.86;59.97;98723.16;7660136;32;40090;-77
2021/12/09 09:35:10;;;;;;;27.15;14.00;;;;;;;2.69;60.08;98726.72;7660096;32;40800;-77
2021/12/09 09:39:29;;;;;;;26.08;13.85;;;;;;;3.30;59.47;98739.41;7659937;32;38765;-77
2021/12/09 09:48:06;;;;;;;26.10;12.98;;;;;;;3.38;58.37;98747.84;7659988;32;38632;-77
2021/12/09 09:52:23;;;;;;;24.25;12.73;;;;;;;3.11;59.34;98755.03;7659936;32;38545;-77
2021/12/09 09:56:42;;;;;;;26.83;13.65;;;;;;;3.63;58.15;98756.50;7659712;32;36312;-77
2021/12/09 10:00:58;;;;;;;24.90;13.52;;;;;;;3.59;58.68;98731.94;7659790;32;37829;-77
2021/12/09 10:05:15;;;;;;;25.17;13.65;;;;;;;3.50;59.66;98710.00;7659655;32;39114;-77
2021/12/09 10:09:31;;;;;;;22.80;13.20;;;;;;;3.25;61.24;98691.66;7659706;32;40816;-77
2021/12/09 10:13:48;;;;;;;28.27;14.40;;;;;;;3.48;60.74;98684.38;7659536;32;38563;-77
2021/12/09 10:18:05;;;;;;;28.17;14.13;;;;;;;3.55;61.11;98690.37;7659654;32;37845;-77
2021/12/09 10:22:24;;;;;;;32.28;15.20;;;;;;;3.23;61.24;98690.28;7659230;32;39305;-77
2021/12/09 10:26:42;;;;;;;26.25;12.90;;;;;;;3.57;60.62;98659.41;7659419;32;39963;-77
2021/12/09 10:31:10;;;;;;;22.85;13.20;;;;;;;3.55;60.67;98672.34;7659448;32;37880;-77
2021/12/09 10:35:26;;;;;;;29.60;14.77;;;;;;;3.70;60.38;98662.78;7659466;32;36874;-77
2021/12/09 10:39:56;;;;;;;28.17;13.55;;;;;;;3.72;60.70;98650.66;7659314;32;39334;-78
2021/12/09 10:44:13;;;;;;;27.15;13.65;;;;;;;3.60;62.51;98647.31;7659288;32;39738;-78
2021/12/09 10:48:40;;;;;;;27.55;13.07;;;;;;;3.80;61.94;98630.53;7659018;32;37875;-78
2021/12/09 10:53:05;;;;;;;24.60;13.05;;;;;;;3.31;62.88;98617.91;7659175;32;37133;-78
2021/12/09 10:57:27;;;;;;;23.67;12.75;;;;;;;3.65;62.45;98616.91;7658069;32;40156;-77
2021/12/09 11:01:43;;;;;;;23.98;13.25;;;;;;;4.10;60.91;98618.38;7657924;32;39897;-78
2021/12/09 11:06:14;;;;;;;24.45;13.38;;;;;;;3.34;62.44;98625.47;7659048;32;37983;-78
2021/12/09 11:10:31;;;;;;;24.15;12.95;;;;;;;3.63;61.62;98632.53;7657923;32;37171;-78
2021/12/09 11:14:59;;;;;;;26.77;14.10;;;;;;;3.81;60.75;98626.78;7658967;32;39320;-78
2021/12/09 11:19:18;;;;;;;29.33;13.82;;;;;;;3.32;62.47;98643.78;7657801;32;39378;-78
2021/12/09 11:23:59;;;;;;;25.33;13.95;;;;;;;3.51;61.68;98635.38;7658624;32;37670;-78
2021/12/09 11:28:15;;;;;;;23.17;12.80;;;;;;;3.50;62.42;98631.88;7658732;32;37453;-78
2021/12/09 11:36:59;;;;;;;27.00;13.00;;;;;;;3.52;61.61;98635.13;7657887;32;39475;-77
2021/12/09 11:41:34;;;;;;;26.35;14.02;;;;;;;4.13;60.12;98632.16;7658681;32;37806;-77
2021/12/09 11:45:57;;;;;;;24.73;13.13;;;;;;;3.87;61.02;98641.09;7658625;32;38075;-77
2021/12/09 11:50:16;;;;;;;24.52;13.10;;;;;;;3.69;61.55;98636.87;7658599;32;40033;-77
2021/12/09 11:54:33;;;;;;;26.12;13.18;;;;;;;3.81;61.73;98618.69;7658554;32;39550;-78
2021/12/09 12:13:04;;;;;;;28.20;14.13;;;;;;;4.02;61.72;98606.19;7658258;32;38501;-77
2021/12/09 12:17:41;;;;;;;28.80;14.57;;;;;;;3.84;62.17;98604.66;7650674;32;245513;-77
2021/12/09 12:27:38;;;;;;;29.48;13.68;;;;;;;3.75;62.52;98590.84;7657905;32;39402;-78
2021/12/09 12:36:28;;;;;;;26.42;12.85;;;;;;;3.75;63.30;98584.66;7657951;32;38549;-77
2021/12/09 12:41:00;;;;;;;26.60;14.87;;;;;;;4.02;62.23;98576.50;7657969;32;37995;-77
2021/12/09 12:50:17;;;;;;;31.62;15.75;;;;;;;4.08;61.86;98551.19;7634109;32;40617;-77
2021/12/09 12:59:06;;;;;;;30.60;15.13;;;;;;;3.92;62.16;98557.56;7657536;32;37929;-77
2021/12/09 13:03:32;;;;;;;29.90;14.55;;;;;;;4.18;61.36;98561.25;7657338;32;40018;-77
2021/12/09 13:12:35;;;;;;;30.08;15.38;;;;;;;4.00;62.45;98540.91;7657224;32;38716;-77
2021/12/09 13:21:37;;;;;;;30.27;14.55;;;;;;;3.83;63.13;98577.97;7657048;32;39250;-77
2021/12/09 13:26:28;;;;;;;26.65;14.05;;;;;;;3.80;62.57;98597.38;7656585;32;39731;-77
2021/12/09 13:31:11;;;;;;;28.15;14.65;;;;;;;3.65;62.96;98608.81;7643443;32;37935;-78
2021/12/09 13:40:22;;;;;;;28.27;14.15;;;;;;;3.86;62.75;98596.31;7656633;32;39105;-79
2021/12/09 13:58:10;;;;;;;31.95;14.77;;;;;;;3.59;64.04;98581.00;7657369;32;40024;-76
2021/12/09 14:02:27;;;;;;;29.67;14.50;;;;;;;3.79;63.33;98574.16;7660048;32;40769;-77
2021/12/09 14:07:11;;;;;;;27.30;14.32;;;;;;;3.45;64.62;98577.09;7659610;32;38658;-78
2021/12/09 14:11:36;;;;;;;26.67;14.70;;;;;;;3.64;63.81;98567.59;7659736;32;37281;-78
2021/12/09 14:16:04;;;;;;;29.08;15.27;;;;;;;3.22;65.68;98576.31;7659726;32;39764;-78
2021/12/09 14:20:21;;;;;;;27.62;14.35;;;;;;;3.29;65.09;98573.44;7659577;32;40734;-78
2021/12/09 14:24:41;;;;;;;27.37;14.95;;;;;;;3.23;65.64;98572.56;7659340;32;38599;-77
2021/12/09 14:29:01;;;;;;;27.20;14.80;;;;;;;3.37;65.10;98565.72;7659457;32;37877;-79
2021/12/09 14:33:19;;;;;;;30.05;14.85;;;;;;;2.90;66.55;98563.59;7659435;32;39536;-77
2021/12/09 14:37:38;;;;;;;30.45;14.80;;;;;;;3.17;66.01;98557.41;7659406;32;40103;-76
2021/12/09 14:42:13;;;;;;;31.35;14.50;;;;;;;3.27;65.78;98557.53;7657876;32;37905;-77
2021/12/09 14:46:36;;;;;;;25.67;14.77;;;;;;;3.32;65.80;98549.50;7650210;32;37224;-78
2021/12/09 14:50:52;;;;;;;28.45;14.65;;;;;;;3.45;65.44;98552.84;7630464;32;39117;-78
2021/12/09 14:55:29;;;;;;;27.80;14.60;;;;;;;3.29;65.81;98547.31;7632465;32;39660;-77
2021/12/09 14:59:50;;;;;;;25.15;14.18;;;;;;;3.30;65.96;98561.59;7632466;32;37854;-78
2021/12/09 15:04:14;;;;;;;26.80;14.40;;;;;;;3.49;65.43;98581.72;7631222;32;38013;-79
2021/12/09 15:08:32;;;;;;;26.42;13.70;;;;;;;3.54;65.01;98589.06;7631080;32;39417;-78
2021/12/09 15:12:49;;;;;;;26.35;14.57;;;;;;;3.61;64.94;98586.97;7632424;32;39744;-77
2021/12/09 15:17:20;;;;;;;29.37;13.70;;;;;;;3.56;64.60;98584.22;7631844;32;38780;-77
2021/12/09 15:21:36;;;;;;;25.20;12.90;;;;;;;3.47;65.12;98575.78;7631105;32;37396;-78
2021/12/09 15:25:52;;;;;;;26.02;13.15;;;;;;;3.60;64.95;98571.84;7632004;32;39741;-78
2021/12/09 15:30:09;;;;;;;23.62;12.88;;;;;;;3.61;64.89;98567.28;7630271;32;40693;-77
2021/12/09 15:34:48;;;;;;;25.33;13.20;;;;;;;3.72;64.37;98572.47;7632446;32;38814;-78
2021/12/09 15:39:16;;;;;;;25.45;13.65;;;;;;;3.58;64.78;98579.38;7631503;32;37400;-78
2021/12/09 15:43:32;;;;;;;22.83;13.05;;;;;;;3.62;64.67;98582.38;7631441;32;40095;-78
2021/12/09 15:47:50;;;;;;;23.55;12.77;;;;;;;3.81;64.08;98572.03;7630465;32;40814;-79
2021/12/09 15:52:06;;;;;;;27.13;14.63;;;;;;;3.48;65.12;98572.00;7631951;32;37462;-78
2021/12/09 15:56:36;;;;;;;28.80;15.40;;;;;;;3.35;65.48;98567.84;7630784;32;36837;-78
2021/12/09 16:00:55;;;;;;;29.37;16.77;;;;;;;3.41;65.41;98575.97;7631231;32;39257;-77
2021/12/09 16:05:12;;;;;;;29.75;16.30;;;;;;;3.71;64.60;98560.09;7630971;32;40861;-78
2021/12/09 16:09:29;;;;;;;30.35;16.27;;;;;;;3.58;64.69;98563.22;7631081;32;37637;-78
2021/12/09 16:13:47;;;;;;;34.78;20.05;;;;;;;3.30;65.66;98550.81;7632054;32;37220;-78
2021/12/09 16:18:03;;;;;;;29.60;14.60;;;;;;;3.15;66.29;98554.97;7631534;32;40178;-78
2021/12/09 16:26:39;;;;;;;26.90;15.55;;;;;;;3.32;65.83;98549.50;7630356;32;38577;-78
2021/12/09 16:30:55;;;;;;;30.73;16.37;;;;;;;3.09;66.68;98550.63;7629640;32;37172;-78
2021/12/09 16:35:21;;;;;;;26.37;14.70;;;;;;;3.24;66.26;98568.00;7630849;32;40011;-77
2021/12/09 16:39:40;;;;;;;27.10;13.82;;;;;;;3.43;65.70;98555.78;7630040;32;40850;-78
2021/12/09 16:43:58;;;;;;;26.52;14.63;;;;;;;3.62;65.14;98553.53;7629901;32;38668;-77
2021/12/09 16:48:15;;;;;;;26.55;14.87;;;;;;;3.41;65.83;98549.03;7630850;32;37560;-77
2021/12/09 16:52:31;;;;;;;26.10;15.52;;;;;;;3.52;65.22;98548.88;7630642;32;39201;-78
2021/12/09 16:56:55;;;;;;;30.85;14.77;;;;;;;3.54;65.09;98572.88;7631290;32;39986;-78
2021/12/09 17:01:13;;;;;;;23.25;14.73;;;;;;;3.56;64.90;98563.47;7630468;32;38070;-78
2021/12/09 17:05:30;;;;;;;26.15;14.13;;;;;;;3.18;66.16;98565.25;7631300;32;36295;-78
2021/12/09 17:09:47;;;;;;;24.23;13.00;;;;;;;3.57;65.17;98577.78;7630640;32;39603;-78
2021/12/09 17:14:05;;;;;;;26.95;14.87;;;;;;;3.48;65.21;98584.66;7630407;32;40202;-76
2021/12/09 17:18:21;;;;;;;24.80;14.57;;;;;;;3.62;64.85;98569.69;7624894;32;38030;-77
2021/12/09 17:22:37;;;;;;;22.95;14.02;;;;;;;3.63;64.84;98589.41;7628923;32;37999;-77
2021/12/09 17:26:58;;;;;;;24.30;14.10;;;;;;;3.46;65.37;98579.53;7629603;32;39331;-77
2021/12/09 17:31:20;;;;;;;47.47;29.12;;;;;;;3.68;64.73;98579.47;7629013;32;40037;-77
2021/12/09 17:35:37;;;;;;;25.30;15.87;;;;;;;3.37;65.83;98565.72;7633622;32;37637;-77
2021/12/09 17:39:55;;;;;;;28.92;15.57;;;;;;;3.45;65.51;98569.00;7631886;32;37139;-76
2021/12/09 17:44:11;;;;;;;21.52;13.57;;;;;;;3.73;64.60;98600.28;7632713;32;39398;-76
2021/12/09 17:48:32;;;;;;;22.15;12.55;;;;;;;3.42;65.69;98596.47;7632427;32;40815;-77
2021/12/09 17:52:53;;;;;;;27.90;15.37;;;;;;;3.34;65.82;98601.22;7633377;32;38825;-76
2021/12/09 17:57:09;;;;;;;26.00;14.87;;;;;;;3.53;65.20;98603.56;7632017;32;37332;-76
2021/12/09 18:01:25;;;;;;;27.98;17.40;;;;;;;3.61;64.85;98615.78;7632779;32;39081;-78
2021/12/09 18:05:42;;;;;;;32.05;18.45;;;;;;;3.65;64.69;98608.81;7632624;32;40392;-77
2021/12/09 18:09:58;;;;;;;28.60;16.60;;;;;;;3.74;64.34;98615.34;7632561;32;37794;-76
2021/12/09 18:14:17;;;;;;;28.42;16.00;;;;;;;3.39;65.60;98613.94;7631669;32;38027;-76
2021/12/09 18:18:34;;;;;;;31.23;16.00;;;;;;;3.60;65.16;98612.25;7628937;32;39484;-76
2021/12/09 18:22:52;;;;;;;28.38;17.87;;;;;;;3.59;65.05;98613.34;7630683;32;39573;-77
2021/12/09 18:27:10;;;;;;;29.02;16.92;;;;;;;3.26;66.06;98615.16;7629731;32;36628;-76
2021/12/09 18:31:26;;;;;;;22.80;14.85;;;;;;;3.64;64.73;98599.94;7632485;32;37262;-75
2021/12/09 18:36:10;;;;;;;22.92;14.13;;;;;;;3.67;64.70;98599.41;7632908;32;39726;-76
2021/12/09 18:40:34;;;;;;;22.62;13.13;;;;;;;3.91;63.65;98609.84;7632653;32;39641;-77
2021/12/09 18:44:52;;;;;;;32.13;18.90;;;;;;;3.57;64.59;98607.41;7632466;32;37922;-76
2021/12/09 18:49:22;;;;;;;26.98;16.58;;;;;;;3.67;64.56;98618.25;7632345;32;36925;-76
2021/12/09 18:53:38;;;;;;;28.38;16.35;;;;;;;3.63;64.75;98619.03;7632565;32;39353;-76
2021/12/09 18:57:55;;;;;;;31.85;18.50;;;;;;;3.66;64.47;98608.56;7641387;32;39990;-77
2021/12/09 19:02:11;;;;;;;29.02;16.70;;;;;;;3.96;63.49;98607.19;7644011;32;37999;-76
2021/12/09 19:06:27;;;;;;;29.85;17.12;;;;;;;3.65;64.46;98590.75;7638750;32;37369;-76
2021/12/09 19:10:46;;;;;;;27.45;16.10;;;;;;;3.93;63.69;98580.75;7631188;32;39629;-74
2021/12/09 19:15:04;;;;;;;25.62;15.10;;;;;;;3.92;63.77;98577.25;7631913;32;39905;-74
2021/12/09 19:19:21;;;;;;;28.48;16.48;;;;;;;3.70;64.46;98571.13;7630460;32;37856;-74
2021/12/09 19:23:39;;;;;;;30.02;15.90;;;;;;;3.68;64.40;98574.06;7631813;32;37306;-76
2021/12/09 19:27:58;;;;;;;30.80;17.15;;;;;;;4.00;63.21;98580.53;7632070;32;39322;-76
2021/12/09 19:32:14;;;;;;;26.48;15.98;;;;;;;3.66;64.28;98591.59;7631720;32;39067;-76
2021/12/09 19:36:31;;;;;;;27.65;16.10;;;;;;;3.93;63.52;98586.97;7631674;32;37638;-76
2021/12/09 19:40:48;;;;;;;33.25;17.30;;;;;;;3.72;64.27;98596.75;7631879;32;37367;-76
2021/12/09 19:45:05;;;;;;;60.75;19.05;;;;;;;3.86;63.87;98610.62;7631771;32;40148;-76
2021/12/09 19:49:21;;;;;;;64.47;17.60;;;;;;;3.98;63.34;98615.03;7631869;32;39934;-76
2021/12/09 19:53:38;;;;;;;27.80;16.52;;;;;;;3.85;63.83;98600.91;7631411;32;38702;-76
2021/12/09 19:57:57;;;;;;;30.30;15.55;;;;;;;3.64;64.50;98605.31;7630782;32;37301;-76
2021/12/09 20:02:13;;;;;;;25.62;15.23;;;;;;;4.00;63.30;98596.72;7631762;32;40033;-77
2021/12/09 20:06:30;;;;;;;60.60;16.85;;;;;;;3.69;64.23;98583.81;7645766;32;39899;-77
2021/12/09 20:10:46;;;;;;;29.33;15.10;;;;;;;3.37;65.16;98592.66;7631994;32;37742;-77
2021/12/09 20:15:03;;;;;;;44.60;15.50;;;;;;;3.19;65.81;98603.75;7630861;32;38011;-76
2021/12/09 20:19:19;;;;;;;33.60;15.55;;;;;;;3.42;65.23;98609.94;7632062;32;40029;-76
2021/12/09 20:23:58;;;;;;;30.08;15.27;;;;;;;3.37;65.67;98613.41;7631977;32;40603;-76
2021/12/09 20:28:14;;;;;;;25.88;15.30;;;;;;;3.29;65.88;98614.66;7630667;32;37866;-77
2021/12/09 20:32:30;;;;;;;27.60;15.25;;;;;;;3.58;65.18;98615.22;7632066;32;37266;-77
2021/12/09 20:36:46;;;;;;;25.30;14.15;;;;;;;3.69;64.49;98628.78;7631824;32;39421;-77
2021/12/09 20:41:02;;;;;;;25.15;14.32;;;;;;;3.72;64.37;98623.69;7626065;32;40764;-76
2021/12/09 20:45:22;;;;;;;32.58;16.25;;;;;;;3.68;64.51;98617.22;7630419;32;37578;-77
2021/12/09 20:49:38;;;;;;;24.52;14.50;;;;;;;3.71;64.44;98627.47;7630940;32;36908;-76
2021/12/09 20:53:54;;;;;;;26.62;14.93;;;;;;;3.69;64.38;98624.25;7630841;32;39025;-77
2021/12/09 20:58:11;;;;;;;25.25;14.38;;;;;;;3.56;64.71;98613.84;7630729;32;39733;-77
2021/12/09 21:02:27;;;;;;;24.67;13.38;;;;;;;3.80;64.06;98621.63;7628625;32;38091;-77
2021/12/09 21:06:43;;;;;;;21.08;12.35;;;;;;;3.49;65.12;98640.19;7631223;32;38183;-77
2021/12/09 21:11:02;;;;;;;24.73;13.55;;;;;;;3.63;64.84;98641.41;7631160;32;39268;-78
2021/12/09 21:15:21;;;;;;;24.10;13.35;;;;;;;3.68;64.48;98632.56;7631267;32;39081;-78
2021/12/09 21:19:42;;;;;;;23.00;12.95;;;;;;;3.78;64.13;98621.06;7630921;32;38739;-78
2021/12/09 21:23:58;;;;;;;23.92;13.77;;;;;;;3.71;64.24;98621.28;7631019;32;37299;-77